createdAt,value
2023-07-31T00:02:15.168Z,99760.38
2023-07-31T00:04:41.695Z,99776.88
2023-07-31T00:07:08.279Z,99766.50
2023-07-31T00:09:34.935Z,99781.13
2023-07-31T00:12:01.754Z,99786.19
2023-07-31T00:16:53.694Z,99784.31
2023-07-31T00:19:21.602Z,99794.88
2023-07-31T00:21:49.129Z,99783.66
2023-07-31T00:24:16.177Z,99780.28
2023-07-31T00:26:42.760Z,99778.78
2023-07-31T00:29:09.506Z,99784.47
2023-07-31T00:31:37.110Z,99784.69
2023-07-31T00:34:03.713Z,99772.66
2023-07-31T00:36:30.241Z,99776.22
2023-07-31T00:38:56.824Z,99780.47
2023-07-31T00:41:23.336Z,99773.91
2023-07-31T00:43:51.304Z,99778.56
2023-07-31T00:46:18.237Z,99769.69
2023-07-31T00:48:45.009Z,99773.25
2023-07-31T00:51:12.011Z,99766.72
2023-07-31T00:53:40.501Z,99768.16
2023-07-31T00:56:09.243Z,99768.59
2023-07-31T00:58:35.905Z,99760.13
2023-07-31T01:01:03.487Z,99760.56
2023-07-31T01:03:30.122Z,99757.41
2023-07-31T01:06:10.570Z,99758.47
2023-07-31T01:08:52.411Z,99756.38
2023-07-31T01:11:26.936Z,99765.66
2023-07-31T01:13:55.034Z,99764.84
2023-07-31T01:16:21.791Z,99760.59
2023-07-31T01:18:48.437Z,99757.41
2023-07-31T01:21:26.405Z,99754.25
2023-07-31T01:24:24.126Z,99755.06
2023-07-31T01:26:59.488Z,99748.75
2023-07-31T01:29:50.361Z,99746.41
2023-07-31T01:32:19.252Z,99748.09
2023-07-31T01:34:47.135Z,99751.28
2023-07-31T01:37:13.731Z,99759.75
2023-07-31T01:39:40.198Z,99759.75
2023-07-31T01:42:07.079Z,99767.16
2023-07-31T01:44:34.435Z,99775.63
2023-07-31T01:47:01.049Z,99764.84
2023-07-31T01:49:28.491Z,99766.94
2023-07-31T01:51:55.372Z,99774.97
2023-07-31T01:54:22.005Z,99770.31
2023-07-31T01:56:48.510Z,99782.16
2023-07-31T01:59:15.131Z,99768.81
2023-07-31T02:01:41.595Z,99781.91
2023-07-31T02:04:09.202Z,99782.56
2023-07-31T02:09:01.337Z,99778.75
2023-07-31T02:11:27.974Z,99780.44
2023-07-31T02:13:54.469Z,99787.81
2023-07-31T02:16:21.131Z,99791.19
2023-07-31T02:18:48.844Z,99786.53
2023-07-31T02:21:15.464Z,99794.38
2023-07-31T02:23:42.162Z,99804.72
2023-07-31T02:26:08.754Z,99802.59
2023-07-31T02:28:35.498Z,99802.63
2023-07-31T02:31:02.568Z,99797.75
2023-07-31T02:33:29.145Z,99807.47
2023-07-31T02:35:55.753Z,99813.38
2023-07-31T02:38:22.839Z,99814.41
2023-07-31T02:40:49.284Z,99814.41
2023-07-31T02:43:17.232Z,99822.66
2023-07-31T02:45:44.143Z,99825.38
2023-07-31T02:48:10.684Z,99831.75
2023-07-31T02:50:37.325Z,99833.63
2023-07-31T02:53:03.797Z,99841.03
2023-07-31T02:55:30.427Z,99830.00
2023-07-31T02:57:57.032Z,99834.22
2023-07-31T03:00:23.665Z,99825.09
2023-07-31T03:02:50.484Z,99837.16
2023-07-31T03:05:17.238Z,99833.75
2023-07-31T03:07:44.819Z,99833.97
2023-07-31T03:10:11.446Z,99841.13
2023-07-31T03:12:37.888Z,99838.81
2023-07-31T03:15:06.198Z,99833.09
2023-07-31T03:17:32.770Z,99836.94
2023-07-31T03:19:59.511Z,99826.59
2023-07-31T03:22:27.186Z,99836.50
2023-07-31T03:24:53.901Z,99839.66
2023-07-31T03:27:20.369Z,99839.00
2023-07-31T03:29:46.913Z,99842.81
2023-07-31T03:32:13.487Z,99838.38
2023-07-31T03:34:40.045Z,99855.03
2023-07-31T03:37:06.681Z,99861.59
2023-07-31T03:39:34.077Z,99850.38
2023-07-31T03:42:00.696Z,99861.38
2023-07-31T03:44:27.250Z,99858.81
2023-07-31T03:46:53.915Z,99863.66
2023-07-31T03:49:20.451Z,99866.41
2023-07-31T03:51:47.455Z,99871.03
2023-07-31T03:54:14.111Z,99862.59
2023-07-31T03:56:41.198Z,99872.53
2023-07-31T03:59:08.893Z,99868.50
2023-07-31T04:01:35.482Z,99873.00
2023-07-31T04:04:05.693Z,99870.03
2023-07-31T04:06:32.369Z,99874.91
2023-07-31T04:08:58.909Z,99882.31
2023-07-31T04:11:26.815Z,99874.34
2023-07-31T04:13:53.616Z,99872.44
2023-07-31T04:16:20.230Z,99877.63
2023-07-31T04:18:46.938Z,99874.56
2023-07-31T04:21:13.463Z,99871.97
2023-07-31T04:23:39.877Z,99881.81
2023-07-31T04:26:06.528Z,99900.97
2023-07-31T04:28:33.322Z,99892.66
2023-07-31T04:31:00.424Z,99882.31
2023-07-31T04:33:28.095Z,99882.97
2023-07-31T04:35:55.254Z,99897.50
2023-07-31T04:38:22.900Z,99888.03
2023-07-31T04:40:49.861Z,99893.69
2023-07-31T04:43:16.739Z,99896.63
2023-07-31T04:45:46.411Z,99895.16
2023-07-31T04:48:13.014Z,99893.59
2023-07-31T04:50:39.534Z,99890.47
2023-07-31T04:53:06.447Z,99885.31
2023-07-31T04:55:32.975Z,99882.47
2023-07-31T04:58:02.558Z,99882.69
2023-07-31T05:00:29.193Z,99881.03
2023-07-31T05:02:55.860Z,99874.66
2023-07-31T05:05:23.080Z,99886.81
2023-07-31T05:07:49.639Z,99887.94
2023-07-31T05:10:16.248Z,99895.28
2023-07-31T05:12:42.845Z,99910.06
2023-07-31T05:15:10.216Z,99906.09
2023-07-31T05:17:36.925Z,99903.19
2023-07-31T05:20:03.638Z,99914.72
2023-07-31T05:22:30.268Z,99908.19
2023-07-31T05:24:56.842Z,99914.13
2023-07-31T05:27:24.836Z,99918.09
2023-07-31T05:29:51.379Z,99911.09
2023-07-31T05:32:18.054Z,99916.47
2023-07-31T05:34:45.679Z,99914.09
2023-07-31T05:37:12.335Z,99913.94
2023-07-31T05:39:38.848Z,99902.59
2023-07-31T05:42:06.226Z,99909.66
2023-07-31T05:44:32.882Z,99906.97
2023-07-31T05:47:00.036Z,99908.31
2023-07-31T05:51:53.302Z,99899.59
2023-07-31T05:54:19.942Z,99895.69
2023-07-31T05:56:46.491Z,99901.69
2023-07-31T05:59:14.120Z,99898.69
2023-07-31T06:01:40.863Z,99895.91
2023-07-31T06:04:07.568Z,99898.94
2023-07-31T06:06:35.578Z,99897.72
2023-07-31T06:09:02.203Z,99894.00
2023-07-31T06:11:31.538Z,99899.72
2023-07-31T06:13:58.196Z,99892.28
2023-07-31T06:16:24.800Z,99890.09
2023-07-31T06:18:51.352Z,99892.09
2023-07-31T06:21:18.815Z,99888.56
2023-07-31T06:23:45.375Z,99888.50
2023-07-31T06:26:12.426Z,99889.56
2023-07-31T06:28:39.010Z,99881.66
2023-07-31T06:31:06.058Z,99885.25
2023-07-31T06:33:32.846Z,99885.63
2023-07-31T06:35:59.418Z,99872.25
2023-07-31T06:38:27.685Z,99866.91
2023-07-31T06:40:55.374Z,99873.81
2023-07-31T06:43:22.255Z,99878.16
2023-07-31T06:45:48.940Z,99881.19
2023-07-31T06:48:16.596Z,99882.59
2023-07-31T06:50:43.232Z,99879.44
2023-07-31T06:53:10.922Z,99887.63
2023-07-31T06:55:37.631Z,99876.25
2023-07-31T06:58:04.233Z,99876.13
2023-07-31T07:00:32.636Z,99878.50
2023-07-31T07:02:59.302Z,99874.69
2023-07-31T07:05:26.014Z,99874.00
2023-07-31T07:07:52.630Z,99868.09
2023-07-31T07:10:19.344Z,99874.50
2023-07-31T07:12:46.010Z,99874.50
2023-07-31T07:15:12.577Z,99882.13
2023-07-31T07:17:39.708Z,99878.06
2023-07-31T07:20:07.105Z,99884.84
2023-07-31T07:22:33.726Z,99879.47
2023-07-31T07:25:00.247Z,99876.69
2023-07-31T07:27:27.066Z,99875.50
2023-07-31T07:29:54.975Z,99881.59
2023-07-31T07:32:22.465Z,99888.09
2023-07-31T07:34:49.978Z,99881.16
2023-07-31T07:37:17.090Z,99874.81
2023-07-31T07:39:45.508Z,99873.44
2023-07-31T07:42:13.042Z,99876.81
2023-07-31T07:44:39.839Z,99876.63
2023-07-31T07:47:06.762Z,99882.03
2023-07-31T07:49:37.196Z,99878.16
2023-07-31T07:52:04.388Z,99882.59
2023-07-31T07:54:31.486Z,99872.63
2023-07-31T07:59:23.465Z,99869.19
2023-07-31T08:01:50.110Z,99873.81
2023-07-31T08:04:16.863Z,99872.59
2023-07-31T08:06:43.807Z,99883.81
2023-07-31T08:09:10.400Z,99876.66
2023-07-31T08:11:37.023Z,99881.28
2023-07-31T08:14:03.625Z,99884.97
2023-07-31T08:16:30.291Z,99880.84
2023-07-31T08:18:56.982Z,99874.75
2023-07-31T08:21:25.392Z,99869.16
2023-07-31T08:23:52.003Z,99875.88
2023-07-31T08:26:19.938Z,99871.38
2023-07-31T08:28:46.596Z,99873.13
2023-07-31T08:31:13.415Z,99867.00
2023-07-31T08:33:43.218Z,99879.28
2023-07-31T08:36:10.236Z,99867.84
2023-07-31T08:38:36.796Z,99866.97
2023-07-31T08:41:06.792Z,99875.59
2023-07-31T08:43:34.002Z,99863.34
2023-07-31T08:46:01.543Z,99861.16
2023-07-31T08:48:30.323Z,99861.69
2023-07-31T08:50:57.071Z,99867.59
2023-07-31T08:53:23.988Z,99867.06
2023-07-31T08:55:51.274Z,99868.13
2023-07-31T08:58:19.430Z,99861.41
2023-07-31T09:00:48.030Z,99863.38
2023-07-31T09:03:16.614Z,99852.16
2023-07-31T09:05:45.180Z,99864.09
2023-07-31T09:08:18.882Z,99859.78
2023-07-31T09:10:46.931Z,99863.75
2023-07-31T09:13:14.863Z,99866.03
2023-07-31T09:15:44.797Z,99876.75
2023-07-31T09:18:12.068Z,99874.97
2023-07-31T09:20:40.081Z,99870.59
2023-07-31T09:23:14.605Z,99866.63
2023-07-31T09:25:45.484Z,99861.28
2023-07-31T09:28:14.072Z,99853.75
2023-07-31T09:30:49.730Z,99864.13
2023-07-31T09:33:16.881Z,99858.28
2023-07-31T09:35:44.181Z,99861.66
2023-07-31T09:38:13.119Z,99860.03
2023-07-31T09:40:42.039Z,99858.63
2023-07-31T09:43:19.606Z,99854.66
2023-07-31T09:45:47.108Z,99847.63
2023-07-31T09:48:19.319Z,99856.63
2023-07-31T09:50:48.380Z,99854.69
2023-07-31T09:53:16.092Z,99846.00
2023-07-31T09:55:43.181Z,99851.03
2023-07-31T09:58:12.434Z,99854.94
2023-07-31T10:00:40.158Z,99859.13
2023-07-31T10:03:09.266Z,99849.38
2023-07-31T10:05:50.661Z,99848.22
2023-07-31T10:08:20.989Z,99842.78
2023-07-31T10:10:47.871Z,99837.09
2023-07-31T10:13:15.085Z,99841.44
2023-07-31T10:15:42.195Z,99829.63
2023-07-31T10:18:09.534Z,99827.53
2023-07-31T10:20:37.911Z,99833.69
2023-07-31T10:23:04.957Z,99840.78
2023-07-31T10:25:33.033Z,99834.78
2023-07-31T10:28:00.411Z,99837.06
2023-07-31T10:30:30.905Z,99830.16
2023-07-31T10:32:59.324Z,99830.91
2023-07-31T10:35:29.703Z,99831.44
2023-07-31T10:37:56.378Z,99831.41
2023-07-31T10:40:28.166Z,99827.25
2023-07-31T10:42:56.508Z,99817.72
2023-07-31T10:45:34.150Z,99813.78
2023-07-31T10:48:01.779Z,99818.34
2023-07-31T10:50:29.356Z,99813.56
2023-07-31T10:52:57.431Z,99810.78
2023-07-31T10:55:44.207Z,99809.41
2023-07-31T10:58:14.828Z,99805.75
2023-07-31T11:00:44.256Z,99813.88
2023-07-31T11:03:10.903Z,99816.94
2023-07-31T11:05:47.643Z,99813.03
2023-07-31T11:08:26.025Z,99808.84
2023-07-31T11:11:15.087Z,99800.75
2023-07-31T11:13:47.374Z,99819.50
2023-07-31T11:16:14.641Z,99806.06
2023-07-31T11:18:42.571Z,99821.69
2023-07-31T11:21:30.017Z,99819.47
2023-07-31T11:23:59.740Z,99806.81
2023-07-31T11:26:26.917Z,99812.03
2023-07-31T11:28:53.484Z,99811.91
2023-07-31T11:31:20.559Z,99813.91
2023-07-31T11:33:47.137Z,99808.34
2023-07-31T11:36:18.981Z,99809.72
2023-07-31T11:38:45.704Z,99807.94
2023-07-31T11:41:15.643Z,99811.53
2023-07-31T11:43:42.332Z,99816.03
2023-07-31T11:46:09.058Z,99806.81
2023-07-31T11:48:37.175Z,99802.56
2023-07-31T11:51:10.978Z,99798.16
2023-07-31T11:53:48.545Z,99794.78
2023-07-31T11:56:18.622Z,99798.84
2023-07-31T11:58:48.229Z,99802.03
2023-07-31T12:01:18.219Z,99793.38
2023-07-31T12:03:46.099Z,99795.69
2023-07-31T12:06:12.752Z,99796.53
2023-07-31T12:08:39.308Z,99798.22
2023-07-31T12:11:10.657Z,99797.66
2023-07-31T12:13:37.879Z,99796.47
2023-07-31T12:16:05.410Z,99792.56
2023-07-31T12:18:38.463Z,99789.81
2023-07-31T12:21:10.456Z,99792.59
2023-07-31T12:23:38.480Z,99787.81
2023-07-31T12:26:07.209Z,99791.72
2023-07-31T12:28:51.808Z,99782.53
2023-07-31T12:31:21.408Z,99776.72
2023-07-31T12:33:49.391Z,99772.47
2023-07-31T12:36:18.091Z,99772.16
2023-07-31T12:38:45.869Z,99767.41
2023-07-31T12:41:12.900Z,99772.06
2023-07-31T12:43:43.049Z,99776.28
2023-07-31T12:46:10.419Z,99770.13
2023-07-31T12:48:38.905Z,99766.25
2023-07-31T12:51:05.804Z,99760.41
2023-07-31T12:53:33.398Z,99765.44
2023-07-31T12:56:00.298Z,99752.63
2023-07-31T12:58:27.560Z,99756.53
2023-07-31T13:00:55.208Z,99753.75
2023-07-31T13:03:21.949Z,99744.84
2023-07-31T13:05:49.864Z,99742.25
2023-07-31T13:08:18.575Z,99739.34
2023-07-31T13:13:13.675Z,99729.47
2023-07-31T13:15:40.341Z,99730.84
2023-07-31T13:18:07.066Z,99743.66
2023-07-31T13:20:33.769Z,99724.75
2023-07-31T13:23:03.361Z,99716.75
2023-07-31T13:25:30.036Z,99716.97
2023-07-31T13:27:56.973Z,99713.09
2023-07-31T13:30:23.854Z,99726.00
2023-07-31T13:32:50.454Z,99715.88
2023-07-31T13:35:18.372Z,99722.31
2023-07-31T13:37:45.085Z,99714.16
2023-07-31T13:40:12.193Z,99713.50
2023-07-31T13:42:38.873Z,99712.09
2023-07-31T13:45:11.601Z,99706.78
2023-07-31T13:47:38.583Z,99706.88
2023-07-31T13:50:05.768Z,99700.56
2023-07-31T13:52:32.370Z,99700.53
2023-07-31T13:54:58.996Z,99708.09
2023-07-31T13:57:25.558Z,99707.13
2023-07-31T13:59:52.172Z,99707.88
2023-07-31T14:02:18.751Z,99706.75
2023-07-31T14:04:45.619Z,99701.66
2023-07-31T14:07:12.367Z,99700.69
2023-07-31T14:09:38.938Z,99703.88
2023-07-31T14:12:06.245Z,99699.41
2023-07-31T14:14:32.813Z,99696.41
2023-07-31T14:16:59.601Z,99694.16
2023-07-31T14:19:26.405Z,99693.94
2023-07-31T14:22:04.966Z,99698.78
2023-07-31T14:24:37.505Z,99699.28
2023-07-31T14:27:04.355Z,99690.88
2023-07-31T14:29:31.160Z,99697.72
2023-07-31T14:34:33.897Z,99698.09
2023-07-31T14:37:00.718Z,99696.88
2023-07-31T14:39:27.354Z,99696.13
2023-07-31T14:41:54.442Z,99697.16
2023-07-31T14:44:20.967Z,99704.50
2023-07-31T14:46:47.638Z,99697.22
2023-07-31T14:49:14.332Z,99700.97
2023-07-31T14:51:41.133Z,99709.66
2023-07-31T14:54:08.078Z,99708.81
2023-07-31T14:56:34.662Z,99705.16
2023-07-31T14:59:02.302Z,99704.66
2023-07-31T15:01:29.434Z,99715.34
2023-07-31T15:03:56.298Z,99716.22
2023-07-31T15:06:23.039Z,99713.94
2023-07-31T15:08:52.606Z,99715.66
2023-07-31T15:11:19.240Z,99708.16
2023-07-31T15:13:46.084Z,99716.56
2023-07-31T15:16:12.681Z,99710.38
2023-07-31T15:18:39.868Z,99710.41
2023-07-31T15:21:07.511Z,99703.66
2023-07-31T15:23:34.201Z,99701.13
2023-07-31T15:26:03.871Z,99699.16
2023-07-31T15:28:30.614Z,99698.91
2023-07-31T15:30:58.087Z,99698.06
2023-07-31T15:33:24.635Z,99700.88
2023-07-31T15:35:51.128Z,99696.44
2023-07-31T15:38:17.817Z,99700.06
2023-07-31T15:40:44.465Z,99697.00
2023-07-31T15:43:11.049Z,99695.31
2023-07-31T15:45:38.587Z,99701.72
2023-07-31T15:48:05.536Z,99694.50
2023-07-31T15:50:32.136Z,99699.53
2023-07-31T15:52:58.742Z,99693.69
2023-07-31T15:55:26.497Z,99704.31
2023-07-31T15:57:53.779Z,99688.09
2023-07-31T16:00:21.485Z,99691.19
2023-07-31T16:02:49.011Z,99693.66
2023-07-31T16:07:40.773Z,99699.81
2023-07-31T16:10:09.249Z,99697.84
2023-07-31T16:12:35.882Z,99703.97
2023-07-31T16:15:03.690Z,99701.44
2023-07-31T16:17:30.297Z,99700.66
2023-07-31T16:19:56.942Z,99710.38
2023-07-31T16:22:23.540Z,99704.50
2023-07-31T16:24:50.290Z,99697.59
2023-07-31T16:27:17.373Z,99700.59
2023-07-31T16:29:45.581Z,99700.84
2023-07-31T16:32:12.753Z,99702.47
2023-07-31T16:34:39.684Z,99706.41
2023-07-31T16:37:06.404Z,99706.94
2023-07-31T16:39:33.244Z,99705.19
2023-07-31T16:42:00.383Z,99711.53
2023-07-31T16:44:27.015Z,99712.34
2023-07-31T16:46:53.728Z,99704.69
2023-07-31T16:49:20.760Z,99704.84
2023-07-31T16:51:48.956Z,99709.56
2023-07-31T16:54:15.734Z,99715.53
2023-07-31T16:56:56.990Z,99709.41
2023-07-31T16:59:24.768Z,99709.41
2023-07-31T17:01:51.862Z,99721.81
2023-07-31T17:04:18.571Z,99715.88
2023-07-31T17:06:46.269Z,99723.91
2023-07-31T17:09:13.381Z,99724.81
2023-07-31T17:11:42.230Z,99721.88
2023-07-31T17:14:09.606Z,99729.72
2023-07-31T17:19:02.779Z,99728.72
2023-07-31T17:21:29.900Z,99741.72
2023-07-31T17:23:57.114Z,99740.63
2023-07-31T17:26:24.123Z,99738.13
2023-07-31T17:28:51.575Z,99743.81
2023-07-31T17:31:18.661Z,99746.72
2023-07-31T17:33:45.301Z,99747.47
2023-07-31T17:36:11.998Z,99749.00
2023-07-31T17:38:39.064Z,99750.22
2023-07-31T17:41:06.128Z,99757.03
2023-07-31T17:43:33.763Z,99758.22
2023-07-31T17:46:00.417Z,99759.44
2023-07-31T17:48:27.012Z,99763.00
2023-07-31T17:50:54.102Z,99756.75
2023-07-31T17:53:21.296Z,99765.22
2023-07-31T17:55:48.533Z,99764.81
2023-07-31T18:10:45.305Z,99771.34
2023-07-31T18:13:12.232Z,99775.34
2023-07-31T18:15:38.833Z,99784.75
2023-07-31T18:18:06.460Z,99784.53
2023-07-31T18:20:33.072Z,99789.34
2023-07-31T18:22:59.570Z,99788.25
2023-07-31T18:25:26.674Z,99791.28
2023-07-31T18:27:53.789Z,99798.53
2023-07-31T18:30:20.533Z,99806.34
2023-07-31T18:32:47.086Z,99803.53
2023-07-31T18:35:13.687Z,99803.50
2023-07-31T18:37:40.427Z,99807.47
2023-07-31T18:40:08.488Z,99807.94
2023-07-31T18:55:54.274Z,99835.16
2023-07-31T18:58:21.029Z,99833.94
2023-07-31T19:00:47.659Z,99835.03
2023-07-31T19:03:14.378Z,99840.41
2023-07-31T19:05:40.978Z,99844.03
2023-07-31T19:08:07.803Z,99842.09
2023-07-31T19:10:35.909Z,99841.63
2023-07-31T19:13:04.384Z,99848.22
2023-07-31T19:15:31.446Z,99851.06
2023-07-31T19:17:58.002Z,99853.25
2023-07-31T19:20:24.552Z,99859.69
2023-07-31T19:22:51.195Z,99866.66
2023-07-31T19:25:26.095Z,99866.88
2023-07-31T19:27:57.778Z,99869.69
2023-07-31T19:30:25.133Z,99875.00
2023-07-31T19:32:52.354Z,99879.94
2023-07-31T19:35:19.153Z,99879.22
2023-07-31T19:37:46.163Z,99877.28
2023-07-31T19:40:13.579Z,99879.28
2023-07-31T19:42:41.461Z,99871.44
2023-07-31T19:45:09.785Z,99875.25
2023-07-31T19:47:36.507Z,99877.81
2023-07-31T19:50:05.230Z,99867.91
2023-07-31T19:52:32.282Z,99871.75
2023-07-31T19:54:59.390Z,99878.22
2023-07-31T19:57:27.124Z,99878.94
2023-07-31T19:59:54.120Z,99871.50
2023-07-31T20:02:20.742Z,99873.09
2023-07-31T20:07:12.660Z,99880.78
2023-07-31T20:09:39.237Z,99882.91
2023-07-31T20:12:05.934Z,99889.03
2023-07-31T20:14:32.524Z,99880.78
2023-07-31T20:16:59.038Z,99876.13
2023-07-31T20:19:26.192Z,99884.19
2023-07-31T20:21:52.790Z,99879.31
2023-07-31T20:24:19.241Z,99879.09
2023-07-31T20:26:48.910Z,99874.66
2023-07-31T20:29:15.624Z,99877.63
2023-07-31T20:31:42.724Z,99878.47
2023-07-31T20:34:10.305Z,99881.03
2023-07-31T20:36:37.612Z,99874.22
2023-07-31T20:39:07.409Z,99869.72
2023-07-31T20:41:35.607Z,99873.28
2023-07-31T20:44:03.130Z,99880.22
2023-07-31T20:46:32.199Z,99880.84
2023-07-31T20:48:59.051Z,99882.34
2023-07-31T20:51:25.924Z,99883.59
2023-07-31T20:53:52.504Z,99886.09
2023-07-31T20:56:20.056Z,99883.34
2023-07-31T20:58:46.664Z,99886.09
2023-07-31T21:01:13.486Z,99887.16
2023-07-31T21:03:40.260Z,99887.78
2023-07-31T21:06:06.983Z,99896.41
2023-07-31T21:08:33.939Z,99886.03
2023-07-31T21:11:01.522Z,99891.84
2023-07-31T21:13:28.349Z,99886.53
2023-07-31T21:16:01.736Z,99890.88
2023-07-31T21:18:28.535Z,99894.72
2023-07-31T21:20:55.228Z,99891.97
2023-07-31T21:23:27.812Z,99894.97
2023-07-31T21:25:54.387Z,99891.16
2023-07-31T21:28:21.535Z,99889.22
2023-07-31T21:33:38.671Z,99896.47
2023-07-31T21:36:05.670Z,99896.88
2023-07-31T21:38:32.456Z,99898.38
2023-07-31T21:40:59.958Z,99902.56
2023-07-31T21:43:26.609Z,99903.22
2023-07-31T21:45:53.261Z,99905.25
2023-07-31T21:48:20.944Z,99898.88
2023-07-31T21:50:47.547Z,99893.78
2023-07-31T21:53:14.208Z,99901.63
2023-07-31T21:55:41.303Z,99899.75
2023-07-31T21:58:07.864Z,99895.53
2023-07-31T22:00:34.479Z,99904.59
2023-07-31T22:03:01.113Z,99898.88
2023-07-31T22:05:28.210Z,99898.03
2023-07-31T22:07:54.742Z,99888.72
2023-07-31T22:10:22.128Z,99893.34
2023-07-31T22:12:51.887Z,99894.16
2023-07-31T22:15:19.709Z,99889.91
2023-07-31T22:17:46.358Z,99893.63
2023-07-31T22:20:13.847Z,99901.63
2023-07-31T22:22:40.481Z,99893.09
2023-07-31T22:25:08.208Z,99886.09
2023-07-31T22:27:35.341Z,99890.94
2023-07-31T22:30:02.115Z,99889.34
2023-07-31T22:32:29.274Z,99883.91
2023-07-31T22:34:56.201Z,99881.63
2023-07-31T22:37:23.594Z,99880.91
2023-07-31T22:39:50.590Z,99879.25
2023-07-31T22:42:17.186Z,99867.63
2023-07-31T22:44:44.706Z,99876.09
2023-07-31T22:47:11.328Z,99880.66
2023-07-31T22:52:03.744Z,99875.66
2023-07-31T22:54:31.738Z,99878.53
2023-07-31T22:56:58.303Z,99871.59
2023-07-31T22:59:25.238Z,99873.69
2023-07-31T23:01:52.813Z,99871.66
2023-07-31T23:04:19.687Z,99871.91
2023-07-31T23:06:46.451Z,99864.94
2023-07-31T23:09:13.157Z,99871.47
2023-07-31T23:11:41.077Z,99864.03
2023-07-31T23:14:08.741Z,99867.06
2023-07-31T23:19:02.469Z,99862.44
2023-07-31T23:21:31.064Z,99860.06
2023-07-31T23:23:57.574Z,99865.47
2023-07-31T23:26:24.160Z,99857.16
2023-07-31T23:28:50.709Z,99857.38
2023-07-31T23:31:17.461Z,99858.63
2023-07-31T23:33:44.965Z,99859.84
2023-07-31T23:36:12.409Z,99856.63
2023-07-31T23:38:42.980Z,99852.41
2023-07-31T23:41:09.949Z,99850.44
2023-07-31T23:43:36.631Z,99841.09
2023-07-31T23:46:03.205Z,99849.03
2023-07-31T23:48:30.370Z,99848.38
2023-07-31T23:50:58.379Z,99855.09
2023-07-31T23:53:25.550Z,99851.88
2023-07-31T23:55:52.385Z,99850.53
2023-07-31T23:58:19.257Z,99853.84
